createdAt,value
2017-07-27T00:00:04.906Z,0
2017-07-27T00:03:19.572Z,0
2017-07-27T00:04:04.997Z,0
2017-07-27T00:05:04.696Z,0
2017-07-27T00:06:05.032Z,0
2017-07-27T00:08:05.080Z,0
2017-07-27T00:09:05.124Z,0
2017-07-27T00:10:05.136Z,0
2017-07-27T00:11:04.857Z,0
2017-07-27T00:13:19.484Z,0
2017-07-27T00:14:05.248Z,0
2017-07-27T00:15:05.248Z,0
2017-07-27T00:16:05.275Z,0
2017-07-27T00:17:05.296Z,0
2017-07-27T00:18:05.322Z,0
2017-07-27T00:19:19.951Z,0
2017-07-27T00:20:05.074Z,0
2017-07-27T00:21:05.394Z,0
2017-07-27T00:22:05.424Z,0
2017-07-27T00:23:05.435Z,0
2017-07-27T00:24:05.480Z,0
2017-07-27T00:25:05.486Z,0
2017-07-27T00:26:20.110Z,0
2017-07-27T00:28:05.562Z,0
2017-07-27T00:30:04.986Z,0
2017-07-27T00:31:20.253Z,0
2017-07-27T00:32:05.655Z,0
2017-07-27T00:33:05.375Z,0
2017-07-27T00:34:05.705Z,0
2017-07-27T00:35:20.328Z,0
2017-07-27T00:36:05.428Z,0
2017-07-27T00:37:05.454Z,0
2017-07-27T00:38:05.787Z,0
2017-07-27T00:39:20.421Z,0
2017-07-27T00:40:05.856Z,0
2017-07-27T00:41:05.561Z,0
2017-07-27T00:42:05.911Z,0
2017-07-27T00:43:20.509Z,0
2017-07-27T00:44:05.938Z,0
2017-07-27T00:45:05.980Z,0
2017-07-27T00:46:05.998Z,0
2017-07-27T00:47:05.987Z,0
2017-07-27T00:49:06.053Z,0
2017-07-27T00:51:20.718Z,0
2017-07-27T00:52:06.141Z,0
2017-07-27T00:53:05.847Z,0
2017-07-27T00:54:06.169Z,0
2017-07-27T00:55:06.217Z,0
2017-07-27T00:56:06.219Z,0
2017-07-27T00:57:20.865Z,0
2017-07-27T00:58:06.261Z,0
2017-07-27T00:59:06.296Z,0
2017-07-27T01:00:06.317Z,0
2017-07-27T01:01:20.937Z,0
2017-07-27T01:02:06.368Z,0
2017-07-27T01:03:20.997Z,0
2017-07-27T01:04:06.415Z,0
2017-07-27T01:05:06.440Z,0
2017-07-27T01:06:21.073Z,0
2017-07-27T01:07:06.481Z,0
2017-07-27T01:09:06.539Z,0
2017-07-27T01:10:06.558Z,0
2017-07-27T01:11:06.595Z,0
2017-07-27T01:12:06.595Z,0
2017-07-27T01:13:21.240Z,0
2017-07-27T01:14:20.933Z,0
2017-07-27T01:15:21.288Z,0
2017-07-27T01:16:21.288Z,0
2017-07-27T01:17:06.741Z,0
2017-07-27T01:18:06.740Z,0
2017-07-27T01:19:06.782Z,0
2017-07-27T01:20:06.797Z,0
2017-07-27T01:21:06.825Z,0
2017-07-27T01:22:06.853Z,0
2017-07-27T01:23:06.866Z,0
2017-07-27T01:24:06.889Z,0
2017-07-27T01:25:06.921Z,0
2017-07-27T01:26:07.293Z,0
2017-07-27T01:27:06.968Z,0
2017-07-27T01:28:06.987Z,0
2017-07-27T01:29:07.000Z,0
2017-07-27T01:30:07.043Z,0
2017-07-27T01:31:07.049Z,0
2017-07-27T01:32:06.774Z,0
2017-07-27T01:33:07.113Z,0
2017-07-27T01:34:07.130Z,0
2017-07-27T01:35:07.149Z,0
2017-07-27T01:37:07.194Z,0
2017-07-27T01:38:21.816Z,0
2017-07-27T01:39:07.248Z,0
2017-07-27T01:40:21.866Z,0
2017-07-27T01:41:07.086Z,0
2017-07-27T01:42:06.995Z,0
2017-07-27T01:44:21.968Z,0
2017-07-27T01:45:21.680Z,0
2017-07-27T01:46:07.424Z,0
2017-07-27T01:47:07.412Z,0
2017-07-27T01:48:22.067Z,0
2017-07-27T01:49:07.180Z,0
2017-07-27T01:51:22.134Z,0
2017-07-27T01:52:06.941Z,0
2017-07-27T01:53:22.199Z,0
2017-07-27T01:54:36.802Z,0
2017-07-27T01:55:07.316Z,0
2017-07-27T01:56:07.648Z,0
2017-07-27T01:57:07.645Z,0
2017-07-27T01:58:07.403Z,0
2017-07-27T02:00:07.448Z,0
2017-07-27T02:01:07.464Z,0
2017-07-27T02:03:07.819Z,0
2017-07-27T02:04:07.514Z,0
2017-07-27T02:05:07.880Z,0
2017-07-27T02:06:07.886Z,0
2017-07-27T02:07:07.924Z,0
2017-07-27T02:08:07.923Z,0
2017-07-27T02:10:22.572Z,0
2017-07-27T02:11:08.024Z,0
2017-07-27T02:12:08.020Z,0
2017-07-27T02:13:08.054Z,0
2017-07-27T02:14:07.755Z,0
2017-07-27T02:16:08.112Z,0
2017-07-27T02:17:07.868Z,0
2017-07-27T02:19:07.877Z,0
2017-07-27T02:20:08.213Z,0
2017-07-27T02:21:08.230Z,0
2017-07-27T02:22:07.972Z,0
2017-07-27T02:23:08.291Z,0
2017-07-27T02:24:07.991Z,0
2017-07-27T02:25:08.350Z,0
2017-07-27T02:26:22.958Z,0
2017-07-27T02:27:08.084Z,0
2017-07-27T02:28:08.417Z,0
2017-07-27T02:29:08.480Z,0
2017-07-27T02:30:08.467Z,0
2017-07-27T02:31:08.483Z,0
2017-07-27T02:32:08.518Z,0
2017-07-27T02:33:08.539Z,0
2017-07-27T02:34:08.565Z,0
2017-07-27T02:35:23.173Z,0
2017-07-27T02:36:08.603Z,0
2017-07-27T02:37:08.646Z,0
2017-07-27T02:38:08.650Z,0
2017-07-27T02:39:23.276Z,0
2017-07-27T02:40:08.695Z,0
2017-07-27T02:41:23.310Z,0
2017-07-27T02:42:23.354Z,0
2017-07-27T02:43:08.757Z,0
2017-07-27T02:46:08.815Z,4
2017-07-27T02:47:08.871Z,4
2017-07-27T02:48:23.488Z,4
2017-07-27T02:49:08.602Z,4
2017-07-27T02:50:08.933Z,0
2017-07-27T02:51:08.653Z,4
2017-07-27T02:52:23.585Z,4
2017-07-27T02:53:09.045Z,4
2017-07-27T02:54:09.040Z,8
2017-07-27T02:55:09.024Z,4
2017-07-27T02:56:09.089Z,4
2017-07-27T02:57:09.100Z,8
2017-07-27T02:58:09.141Z,8
2017-07-27T02:59:09.135Z,8
2017-07-27T03:00:09.217Z,8
2017-07-27T03:01:09.181Z,12
2017-07-27T03:02:09.218Z,12
2017-07-27T03:03:09.240Z,16
2017-07-27T03:04:09.280Z,16
2017-07-27T03:05:09.270Z,16
2017-07-27T03:06:09.615Z,20
2017-07-27T03:07:09.324Z,24
2017-07-27T03:08:09.625Z,24
2017-07-27T03:09:09.381Z,28
2017-07-27T03:10:09.160Z,32
2017-07-27T03:11:09.423Z,36
2017-07-27T03:12:09.465Z,40
2017-07-27T03:13:24.062Z,44
2017-07-27T03:14:24.104Z,44
2017-07-27T03:15:09.544Z,48
2017-07-27T03:16:24.141Z,56
2017-07-27T03:17:09.629Z,60
2017-07-27T03:18:09.593Z,68
2017-07-27T03:19:09.632Z,72
2017-07-27T03:20:09.626Z,80
2017-07-27T03:21:09.697Z,88
2017-07-27T03:22:09.717Z,92
2017-07-27T03:24:09.419Z,108
2017-07-27T03:25:09.759Z,116
2017-07-27T03:26:09.798Z,128
2017-07-27T03:27:09.813Z,140
2017-07-27T03:28:09.540Z,148
2017-07-27T03:29:24.454Z,164
2017-07-27T03:30:09.892Z,172
2017-07-27T03:31:24.506Z,188
2017-07-27T03:32:09.640Z,200
2017-07-27T03:33:24.568Z,216
2017-07-27T03:34:09.982Z,228
2017-07-27T03:35:09.369Z,244
2017-07-27T03:36:24.624Z,260
2017-07-27T03:37:10.043Z,272
2017-07-27T03:39:10.147Z,308
2017-07-27T03:40:24.724Z,332
2017-07-27T03:41:10.158Z,344
2017-07-27T03:42:09.854Z,356
2017-07-27T03:44:09.909Z,416
2017-07-27T03:45:24.529Z,448
2017-07-27T03:46:10.258Z,464
2017-07-27T03:47:10.275Z,500
2017-07-27T03:48:10.329Z,552
2017-07-27T03:49:10.318Z,608
2017-07-27T03:50:10.382Z,660
2017-07-27T03:51:10.382Z,700
2017-07-27T03:52:10.110Z,728
2017-07-27T03:53:10.118Z,756
2017-07-27T03:54:10.465Z,792
2017-07-27T03:55:24.773Z,844
2017-07-27T03:56:10.231Z,884
2017-07-27T03:57:10.214Z,932
2017-07-27T03:58:10.527Z,984
2017-07-27T04:00:10.295Z,1056
2017-07-27T04:01:39.817Z,1048
2017-07-27T04:02:10.640Z,1036
2017-07-27T04:03:10.681Z,1000
2017-07-27T04:04:10.673Z,968
2017-07-27T04:05:10.722Z,952
2017-07-27T04:06:10.746Z,956
2017-07-27T04:07:10.758Z,980
2017-07-27T04:09:10.818Z,1084
2017-07-27T04:10:10.846Z,1140
2017-07-27T04:11:10.856Z,1192
2017-07-27T04:12:10.883Z,1240
2017-07-27T04:13:10.912Z,1288
2017-07-27T04:14:10.611Z,1344
2017-07-27T04:15:10.965Z,1428
2017-07-27T04:16:25.566Z,1604
2017-07-27T04:17:11.007Z,1748
2017-07-27T04:18:11.011Z,1964
2017-07-27T04:19:11.046Z,2144
2017-07-27T04:20:25.683Z,2284
2017-07-27T04:21:11.095Z,2344
2017-07-27T04:23:11.129Z,2448
2017-07-27T04:24:25.778Z,2484
2017-07-27T04:25:25.809Z,2520
2017-07-27T04:26:11.242Z,2560
2017-07-27T04:27:25.832Z,2628
2017-07-27T04:28:25.566Z,2672
2017-07-27T04:29:11.272Z,2688
2017-07-27T04:30:11.325Z,2688
2017-07-27T04:31:25.621Z,2704
2017-07-27T04:32:25.643Z,2764
2017-07-27T04:33:10.773Z,2820
2017-07-27T04:34:11.082Z,2976
2017-07-27T04:36:25.728Z,3376
2017-07-27T04:37:11.501Z,3524
2017-07-27T04:38:11.513Z,3752
2017-07-27T04:39:10.892Z,4100
2017-07-27T04:40:11.236Z,4640
2017-07-27T04:41:11.249Z,5140
2017-07-27T04:42:10.984Z,5512
2017-07-27T04:43:11.299Z,5860
2017-07-27T04:44:25.929Z,6260
2017-07-27T04:45:11.691Z,6452
2017-07-27T04:47:11.392Z,6544
2017-07-27T04:48:26.330Z,6752
2017-07-27T04:49:11.457Z,6896
2017-07-27T04:50:11.817Z,6936
2017-07-27T04:51:11.825Z,6888
2017-07-27T04:52:11.220Z,6972
2017-07-27T04:53:11.877Z,7136
2017-07-27T04:54:26.223Z,7080
2017-07-27T04:55:26.519Z,7008
2017-07-27T04:56:11.625Z,7404
2017-07-27T04:57:26.562Z,8104
2017-07-27T04:58:11.669Z,7480
2017-07-27T04:59:26.596Z,5188
2017-07-27T05:00:12.038Z,5176
2017-07-27T05:01:11.755Z,5284
2017-07-27T05:02:11.786Z,5468
2017-07-27T05:03:11.796Z,5488
2017-07-27T05:04:26.729Z,5344
2017-07-27T05:05:26.425Z,5336
2017-07-27T05:06:11.877Z,5416
2017-07-27T05:07:12.194Z,5684
2017-07-27T05:08:12.224Z,6116
2017-07-27T05:09:12.255Z,6592
2017-07-27T05:11:26.892Z,9472
2017-07-27T05:12:12.338Z,11192
2017-07-27T05:13:12.392Z,11208
2017-07-27T05:14:12.353Z,10792
2017-07-27T05:15:12.401Z,12248
2017-07-27T05:16:12.414Z,14524
2017-07-27T05:17:12.444Z,22208
2017-07-27T05:18:12.460Z,35040
2017-07-27T05:19:12.485Z,75104
2017-07-27T05:20:27.119Z,72448
2017-07-27T05:21:12.521Z,45984
2017-07-27T05:22:12.258Z,16704
2017-07-27T05:23:12.582Z,17472
2017-07-27T05:24:12.598Z,22016
2017-07-27T05:25:27.252Z,15648
2017-07-27T05:26:26.963Z,16544
2017-07-27T05:27:12.679Z,16768
2017-07-27T05:28:12.726Z,27392
2017-07-27T05:29:12.737Z,36064
2017-07-27T05:30:12.779Z,48480
2017-07-27T05:31:27.388Z,68256
2017-07-27T05:32:12.823Z,79072
2017-07-27T05:33:12.862Z,77504
2017-07-27T05:34:12.572Z,76416
2017-07-27T05:35:12.906Z,75264
2017-07-27T05:37:27.561Z,63584
2017-07-27T05:38:12.693Z,79360
2017-07-27T05:39:12.723Z,78720
2017-07-27T05:40:12.752Z,60000
2017-07-27T05:41:13.086Z,41568
2017-07-27T05:42:13.096Z,76704
2017-07-27T05:43:13.123Z,75872
2017-07-27T05:44:13.172Z,78336
2017-07-27T05:47:13.264Z,82528
2017-07-27T05:48:13.300Z,49088
2017-07-27T05:49:13.308Z,27456
2017-07-27T05:50:13.375Z,43584
2017-07-27T05:51:27.980Z,77376
2017-07-27T05:52:13.476Z,68736
2017-07-27T05:53:13.435Z,43296
2017-07-27T05:54:13.491Z,29632
2017-07-27T05:55:13.535Z,24288
2017-07-27T05:56:13.572Z,23232
2017-07-27T05:57:13.580Z,22528
2017-07-27T05:58:13.001Z,26176
2017-07-27T05:59:13.652Z,33920
2017-07-27T06:00:13.702Z,36864
2017-07-27T06:01:13.719Z,65856
2017-07-27T06:02:13.444Z,89472
2017-07-27T06:03:13.788Z,78848
2017-07-27T06:04:13.196Z,83200
2017-07-27T06:05:13.852Z,86048
2017-07-27T06:06:13.887Z,80736
2017-07-27T06:07:13.892Z,75104
2017-07-27T06:09:13.966Z,77760
2017-07-27T06:10:13.703Z,83232
2017-07-27T06:11:14.033Z,88064
2017-07-27T06:12:14.084Z,52160
2017-07-27T06:13:14.113Z,67616
2017-07-27T06:14:14.144Z,88704
2017-07-27T06:15:14.167Z,88800
2017-07-27T06:16:13.913Z,86144
2017-07-27T06:17:13.932Z,86976
2017-07-27T06:18:13.970Z,85664
2017-07-27T06:19:13.999Z,71808
2017-07-27T06:20:14.376Z,32800
2017-07-27T06:21:14.062Z,35648
2017-07-27T06:22:14.417Z,27552
2017-07-27T06:23:29.039Z,46240
2017-07-27T06:24:29.107Z,96064
2017-07-27T06:25:14.218Z,95456
2017-07-27T06:26:14.543Z,100288
2017-07-27T06:27:14.600Z,59776
2017-07-27T06:28:14.613Z,40256
2017-07-27T06:29:14.054Z,78688
2017-07-27T06:30:14.692Z,77408
2017-07-27T06:31:29.022Z,83904
2017-07-27T06:32:14.781Z,86112
2017-07-27T06:33:14.774Z,87744
2017-07-27T06:35:14.855Z,61024
2017-07-27T06:36:14.906Z,64832
2017-07-27T06:37:14.635Z,68928
2017-07-27T06:38:14.670Z,56800
2017-07-27T06:39:29.590Z,46176
2017-07-27T06:40:15.021Z,70976
2017-07-27T06:41:15.087Z,35328
2017-07-27T06:42:15.101Z,54080
2017-07-27T06:43:14.833Z,44064
2017-07-27T06:44:14.885Z,41280
2017-07-27T06:45:14.923Z,58112
2017-07-27T06:46:15.262Z,64832
2017-07-27T06:47:15.279Z,72384
2017-07-27T06:48:15.350Z,84544
2017-07-27T06:49:15.364Z,66560
2017-07-27T06:50:15.402Z,65184
2017-07-27T06:51:15.432Z,45696
2017-07-27T06:52:15.479Z,65664
2017-07-27T06:53:15.515Z,51008
2017-07-27T06:54:14.896Z,75392
2017-07-27T06:55:30.165Z,44704
2017-07-27T06:56:15.303Z,73664
2017-07-27T06:57:15.326Z,81664
2017-07-27T06:58:15.350Z,39904
2017-07-27T06:59:15.412Z,31008
2017-07-27T07:00:15.747Z,26112
2017-07-27T07:01:15.479Z,37888
2017-07-27T07:02:15.810Z,34496
2017-07-27T07:03:30.122Z,75584
2017-07-27T07:04:15.579Z,84864
2017-07-27T07:05:15.592Z,83712
2017-07-27T07:06:15.959Z,79200
2017-07-27T07:07:15.667Z,71072
2017-07-27T07:08:16.064Z,70816
2017-07-27T07:09:16.058Z,50432
2017-07-27T07:10:16.098Z,62272
2017-07-27T07:11:30.740Z,69312
2017-07-27T07:12:16.183Z,69152
2017-07-27T07:13:16.195Z,83584
2017-07-27T07:15:16.261Z,54816
2017-07-27T07:16:16.315Z,59136
2017-07-27T07:17:16.328Z,57920
2017-07-27T07:18:16.378Z,52064
2017-07-27T07:19:16.401Z,49440
2017-07-27T07:20:16.434Z,51008
2017-07-27T07:21:16.500Z,39680
2017-07-27T07:22:31.113Z,51488
2017-07-27T07:23:16.573Z,41792
2017-07-27T07:24:16.575Z,55904
2017-07-27T07:25:16.649Z,58464
2017-07-27T07:26:30.946Z,69920
2017-07-27T07:27:16.384Z,70144
2017-07-27T07:28:16.716Z,61824
2017-07-27T07:29:16.464Z,51968
2017-07-27T07:30:31.099Z,63040
2017-07-27T07:31:16.833Z,67136
2017-07-27T07:32:16.871Z,76160
2017-07-27T07:33:16.897Z,73984
2017-07-27T07:34:16.950Z,70464
2017-07-27T07:35:16.660Z,72000
2017-07-27T07:36:17.023Z,74048
2017-07-27T07:37:17.055Z,70368
2017-07-27T07:38:17.087Z,68672
2017-07-27T07:39:16.202Z,71168
2017-07-27T07:40:17.167Z,70400
2017-07-27T07:41:17.184Z,67424
2017-07-27T07:42:17.234Z,67360
2017-07-27T07:43:16.978Z,68832
2017-07-27T07:44:17.322Z,71136
2017-07-27T07:45:17.351Z,68448
2017-07-27T07:46:17.410Z,67232
2017-07-27T07:47:17.421Z,65344
2017-07-27T07:48:17.465Z,64672
2017-07-27T07:49:32.120Z,67264
2017-07-27T07:50:32.129Z,66688
2017-07-27T07:51:32.183Z,68384
2017-07-27T07:52:17.589Z,67808
2017-07-27T07:53:17.666Z,66592
2017-07-27T07:54:17.421Z,69312
2017-07-27T07:55:17.710Z,66496
2017-07-27T07:56:32.344Z,64064
2017-07-27T07:57:17.465Z,64704
2017-07-27T07:58:32.457Z,62272
2017-07-27T07:59:17.913Z,63616
2017-07-27T08:00:17.903Z,64288
2017-07-27T08:01:17.635Z,64480
2017-07-27T08:02:17.982Z,63072
2017-07-27T08:03:17.995Z,64896
2017-07-27T08:05:18.089Z,63552
2017-07-27T08:06:18.144Z,59328
2017-07-27T08:07:18.150Z,61152
2017-07-27T08:08:18.201Z,61056
2017-07-27T08:09:32.835Z,61088
2017-07-27T08:10:18.274Z,63488
2017-07-27T08:11:32.923Z,58336
2017-07-27T08:12:18.353Z,56960
2017-07-27T08:13:18.384Z,60384
2017-07-27T08:14:33.015Z,58656
2017-07-27T08:15:18.165Z,55552
2017-07-27T08:16:18.180Z,57504
2017-07-27T08:17:18.240Z,57056
2017-07-27T08:18:18.275Z,55040
2017-07-27T08:19:18.613Z,50272
2017-07-27T08:20:33.247Z,56128
2017-07-27T08:21:32.981Z,55264
2017-07-27T08:22:18.729Z,53312
2017-07-27T08:23:18.750Z,41120
2017-07-27T08:24:18.814Z,27232
2017-07-27T08:25:18.850Z,23360
2017-07-27T08:26:18.861Z,22848
2017-07-27T08:27:33.514Z,21984
2017-07-27T08:28:18.950Z,21632
2017-07-27T08:29:19.003Z,21152
2017-07-27T08:31:19.053Z,20960
2017-07-27T08:32:19.093Z,20928
2017-07-27T08:33:19.144Z,20704
2017-07-27T08:34:19.160Z,20512
2017-07-27T08:35:19.215Z,20384
2017-07-27T08:36:19.272Z,20224
2017-07-27T08:37:18.985Z,20096
2017-07-27T08:38:18.984Z,20064
2017-07-27T08:39:33.956Z,20256
2017-07-27T08:40:19.397Z,20160
2017-07-27T08:41:19.430Z,20064
2017-07-27T08:42:19.153Z,19840
2017-07-27T08:43:19.498Z,19840
2017-07-27T08:45:19.244Z,19936
2017-07-27T08:46:34.214Z,20128
2017-07-27T08:47:19.331Z,20672
2017-07-27T08:48:19.376Z,20768
2017-07-27T08:49:19.727Z,21248
2017-07-27T08:50:19.774Z,21312
2017-07-27T08:51:34.400Z,13244
2017-07-27T08:52:19.820Z,17612
2017-07-27T08:53:19.881Z,21056
2017-07-27T08:54:19.889Z,20704
2017-07-27T08:56:19.987Z,21344
2017-07-27T08:57:20.025Z,20928
2017-07-27T08:58:20.064Z,20800
2017-07-27T08:59:20.099Z,20864
2017-07-27T09:00:20.126Z,20832
2017-07-27T09:01:34.768Z,20704
2017-07-27T09:02:19.878Z,20608
2017-07-27T09:03:20.246Z,20448
2017-07-27T09:04:20.266Z,20736
2017-07-27T09:05:34.924Z,20544
2017-07-27T09:06:20.348Z,15900
2017-07-27T09:07:20.360Z,22144
2017-07-27T09:08:20.094Z,22080
2017-07-27T09:09:20.443Z,12572
2017-07-27T09:10:19.874Z,11272
2017-07-27T09:11:35.127Z,11228
2017-07-27T09:12:20.567Z,11596
2017-07-27T09:13:20.288Z,21920
2017-07-27T09:14:20.646Z,20512
2017-07-27T09:15:20.352Z,21856
2017-07-27T09:16:35.310Z,21568
2017-07-27T09:17:20.446Z,20736
2017-07-27T09:18:20.777Z,19712
2017-07-27T09:19:35.427Z,10868
2017-07-27T09:23:20.929Z,12092
2017-07-27T09:24:20.998Z,11308
2017-07-27T09:25:21.029Z,20192
2017-07-27T09:26:21.071Z,20512
2017-07-27T09:28:35.425Z,20288
2017-07-27T09:29:35.770Z,19648
2017-07-27T09:30:35.491Z,19488
2017-07-27T09:31:21.234Z,19552
2017-07-27T09:32:21.269Z,19552
2017-07-27T09:33:35.903Z,15552
2017-07-27T09:35:35.986Z,12432
2017-07-27T09:36:21.399Z,21216
2017-07-27T09:37:21.446Z,13416
2017-07-27T09:38:21.462Z,14536
2017-07-27T09:39:21.530Z,15848
2017-07-27T09:40:21.536Z,13628
2017-07-27T09:41:21.591Z,14416
2017-07-27T09:42:35.912Z,11588
2017-07-27T09:43:21.646Z,11012
2017-07-27T09:44:21.369Z,11008
2017-07-27T09:45:21.726Z,10908
2017-07-27T09:46:21.750Z,10968
2017-07-27T09:47:21.784Z,11300
2017-07-27T09:48:21.805Z,12204
2017-07-27T09:49:36.461Z,13028
2017-07-27T09:50:21.565Z,13388
2017-07-27T09:51:21.923Z,14308
2017-07-27T09:52:21.963Z,14812
2017-07-27T09:53:21.995Z,14872
2017-07-27T09:54:22.012Z,15252
2017-07-27T09:55:22.048Z,15964
2017-07-27T09:56:22.081Z,16256
2017-07-27T09:57:21.818Z,16300
2017-07-27T09:58:22.140Z,17984
2017-07-27T09:59:21.879Z,16696
2017-07-27T10:00:22.202Z,17408
2017-07-27T10:01:22.254Z,16564
2017-07-27T10:02:22.289Z,16528
2017-07-27T10:03:22.323Z,16864
2017-07-27T10:04:22.352Z,16480
2017-07-27T10:05:36.999Z,16496
2017-07-27T10:06:22.412Z,18208
2017-07-27T10:07:22.437Z,16648
2017-07-27T10:08:22.485Z,17056
2017-07-27T10:09:22.194Z,16896
2017-07-27T10:12:22.606Z,17760
2017-07-27T10:13:22.639Z,20768
2017-07-27T10:14:22.663Z,20288
2017-07-27T10:15:22.723Z,20480
2017-07-27T10:16:37.343Z,23104
2017-07-27T10:17:22.987Z,21024
2017-07-27T10:18:37.093Z,23104
2017-07-27T10:19:22.850Z,20288
2017-07-27T10:20:22.560Z,20768
2017-07-27T10:21:37.503Z,18752
2017-07-27T10:22:22.623Z,19904
2017-07-27T10:23:22.973Z,22016
2017-07-27T10:24:37.608Z,19808
2017-07-27T10:25:23.056Z,20288
2017-07-27T10:26:23.065Z,21888
2017-07-27T10:27:23.115Z,19904
2017-07-27T10:28:22.825Z,17824
2017-07-27T10:29:23.185Z,17248
2017-07-27T10:30:22.903Z,17024
2017-07-27T10:31:22.926Z,16300
2017-07-27T10:32:23.268Z,16280
2017-07-27T10:33:23.012Z,16160
2017-07-27T10:34:23.046Z,16148
2017-07-27T10:35:23.364Z,16100
2017-07-27T10:36:38.004Z,15996
2017-07-27T10:37:23.430Z,16080
2017-07-27T10:38:23.482Z,15996
2017-07-27T10:40:23.241Z,15696
2017-07-27T10:42:23.584Z,15920
2017-07-27T10:43:23.635Z,16312
2017-07-27T10:44:38.254Z,16340
2017-07-27T10:45:23.684Z,16928
2017-07-27T10:46:38.320Z,17472
2017-07-27T10:47:23.772Z,17952
2017-07-27T10:48:38.390Z,16928
2017-07-27T10:50:23.847Z,17088
2017-07-27T10:51:23.891Z,16992
2017-07-27T10:52:38.227Z,16624
2017-07-27T10:53:23.942Z,16400
2017-07-27T10:54:23.986Z,15932
2017-07-27T10:55:24.011Z,15364
2017-07-27T10:57:24.087Z,13944
2017-07-27T10:58:24.131Z,13140
2017-07-27T10:59:24.148Z,12328
2017-07-27T11:00:24.191Z,11520
2017-07-27T11:01:24.205Z,10804
2017-07-27T11:02:24.255Z,10236
2017-07-27T11:03:24.292Z,9996
2017-07-27T11:04:38.925Z,9856
2017-07-27T11:05:24.352Z,9720
2017-07-27T11:06:24.367Z,9624
2017-07-27T11:07:24.414Z,9736
2017-07-27T11:08:39.047Z,10120
2017-07-27T11:09:24.482Z,10304
2017-07-27T11:10:24.487Z,10392
2017-07-27T11:11:24.549Z,10344
2017-07-27T11:12:24.564Z,10192
2017-07-27T11:13:24.616Z,10180
2017-07-27T11:14:39.226Z,10024
2017-07-27T11:15:24.679Z,9812
2017-07-27T11:16:39.306Z,9500
2017-07-27T11:17:39.329Z,9560
2017-07-27T11:18:24.745Z,9636
2017-07-27T11:19:24.795Z,9796
2017-07-27T11:20:39.431Z,9860
2017-07-27T11:21:24.855Z,9768
2017-07-27T11:22:24.885Z,9384
2017-07-27T11:23:24.604Z,8784
2017-07-27T11:24:39.548Z,8096
2017-07-27T11:25:24.960Z,7752
2017-07-27T11:26:25.040Z,7280
2017-07-27T11:27:25.032Z,6856
2017-07-27T11:28:39.670Z,6408
2017-07-27T11:29:25.105Z,6100
2017-07-27T11:30:25.140Z,5604
2017-07-27T11:31:39.764Z,5040
2017-07-27T11:32:25.201Z,4700
2017-07-27T11:33:25.230Z,4332
2017-07-27T11:34:25.258Z,4136
2017-07-27T11:35:24.978Z,4184
2017-07-27T11:36:39.298Z,4484
2017-07-27T11:37:25.352Z,4764
2017-07-27T11:38:25.363Z,5116
2017-07-27T11:39:25.423Z,5212
2017-07-27T11:41:25.481Z,4960
2017-07-27T11:42:25.479Z,4740
2017-07-27T11:43:25.559Z,4624
2017-07-27T11:44:25.233Z,4620
2017-07-27T11:46:25.620Z,4604
2017-07-27T11:47:25.653Z,4676
2017-07-27T11:48:25.373Z,4740
2017-07-27T11:49:40.318Z,4760
2017-07-27T11:50:25.739Z,4776
2017-07-27T11:51:25.772Z,4736
2017-07-27T11:52:25.793Z,4700
2017-07-27T11:53:40.416Z,4812
2017-07-27T11:54:25.869Z,4956
2017-07-27T11:55:25.871Z,5192
2017-07-27T11:56:40.520Z,5500
2017-07-27T11:57:25.963Z,5672
2017-07-27T11:58:40.575Z,6076
2017-07-27T11:59:25.693Z,6384
2017-07-27T12:00:26.029Z,6796
2017-07-27T12:01:25.448Z,7244
2017-07-27T12:02:26.096Z,7784
2017-07-27T12:03:26.127Z,8288
2017-07-27T12:04:26.148Z,8648
2017-07-27T12:05:26.204Z,8556
2017-07-27T12:07:26.213Z,7232
2017-07-27T12:08:25.961Z,6556
2017-07-27T12:09:26.299Z,5952
2017-07-27T12:10:26.306Z,5432
2017-07-27T12:11:40.958Z,4848
2017-07-27T12:12:26.370Z,4540
2017-07-27T12:14:26.130Z,3952
2017-07-27T12:15:26.478Z,3880
2017-07-27T12:16:26.182Z,3936
2017-07-27T12:17:26.513Z,4040
2017-07-27T12:18:26.558Z,4180
2017-07-27T12:19:26.587Z,4504
2017-07-27T12:20:26.640Z,4876
2017-07-27T12:21:26.652Z,5072
2017-07-27T12:22:41.299Z,5108
2017-07-27T12:23:26.692Z,4908
2017-07-27T12:24:26.430Z,4552
2017-07-27T12:25:26.766Z,4368
2017-07-27T12:26:26.788Z,4264
2017-07-27T12:27:26.822Z,4308
2017-07-27T12:28:41.442Z,4224
2017-07-27T12:29:26.868Z,4004
2017-07-27T12:30:41.485Z,3652
2017-07-27T12:31:26.934Z,3492
2017-07-27T12:32:26.638Z,3296
2017-07-27T12:33:27.004Z,3164
2017-07-27T12:34:27.014Z,3068
2017-07-27T12:35:26.745Z,3020
2017-07-27T12:36:27.052Z,2936
2017-07-27T12:37:26.805Z,2888
2017-07-27T12:38:27.142Z,2788
2017-07-27T12:39:27.161Z,2792
2017-07-27T12:41:27.232Z,2944
2017-07-27T12:42:27.225Z,2980
2017-07-27T12:44:27.307Z,3008
2017-07-27T12:45:27.342Z,3096
2017-07-27T12:46:27.337Z,3276
2017-07-27T12:47:27.064Z,3528
2017-07-27T12:48:27.112Z,3620
2017-07-27T12:49:27.440Z,3724
2017-07-27T12:50:27.487Z,3828
2017-07-27T12:51:27.496Z,3936
2017-07-27T12:52:27.523Z,3732
2017-07-27T12:53:27.546Z,3612
2017-07-27T12:54:27.294Z,3524
2017-07-27T12:55:27.300Z,3520
2017-07-27T12:56:27.644Z,3536
2017-07-27T12:57:27.667Z,3704
2017-07-27T12:58:27.686Z,3948
2017-07-27T12:59:42.328Z,4104
2017-07-27T13:01:27.794Z,3828
2017-07-27T13:02:27.485Z,3636
2017-07-27T13:03:27.569Z,3560
2017-07-27T13:04:27.863Z,3800
2017-07-27T13:05:27.885Z,4112
2017-07-27T13:06:27.615Z,4324
2017-07-27T13:07:27.641Z,4524
2017-07-27T13:08:27.651Z,4076
2017-07-27T13:11:27.741Z,3488
2017-07-27T13:12:28.077Z,3900
2017-07-27T13:13:28.129Z,4856
2017-07-27T13:14:28.138Z,5188
2017-07-27T13:15:42.456Z,5464
2017-07-27T13:16:28.198Z,5540
2017-07-27T13:17:27.918Z,5640
2017-07-27T13:18:42.539Z,5780
2017-07-27T13:19:28.284Z,5836
2017-07-27T13:20:27.980Z,5816
2017-07-27T13:21:28.324Z,5712
2017-07-27T13:22:28.075Z,5528
2017-07-27T13:23:28.085Z,5296
2017-07-27T13:24:43.023Z,5040
2017-07-27T13:25:28.442Z,4888
2017-07-27T13:26:28.475Z,4864
2017-07-27T13:27:28.490Z,4796
2017-07-27T13:28:28.529Z,4580
2017-07-27T13:29:28.546Z,4192
2017-07-27T13:30:28.275Z,4236
2017-07-27T13:31:43.236Z,3648
2017-07-27T13:32:42.927Z,3816
2017-07-27T13:33:28.350Z,4204
2017-07-27T13:34:28.699Z,4232
2017-07-27T13:35:28.715Z,3892
2017-07-27T13:36:28.759Z,3848
2017-07-27T13:38:28.777Z,4928
2017-07-27T13:39:28.837Z,5284
2017-07-27T13:40:43.142Z,4888
2017-07-27T13:41:28.902Z,4888
2017-07-27T13:42:28.886Z,4400
2017-07-27T13:43:43.541Z,3448
2017-07-27T13:44:28.951Z,3496
2017-07-27T13:45:28.977Z,3736
2017-07-27T13:46:43.628Z,2500
2017-07-27T13:47:29.047Z,1912
2017-07-27T13:48:29.070Z,1560
2017-07-27T13:49:29.125Z,1532
2017-07-27T13:50:29.136Z,1560
2017-07-27T13:51:28.839Z,1568
2017-07-27T13:52:28.878Z,1804
2017-07-27T13:53:29.194Z,2164
2017-07-27T13:54:28.935Z,2624
2017-07-27T13:55:29.173Z,3196
2017-07-27T13:56:28.665Z,3744
2017-07-27T13:57:29.001Z,4052
2017-07-27T13:58:29.358Z,4132
2017-07-27T13:59:29.066Z,4252
2017-07-27T14:00:29.402Z,4540
2017-07-27T14:01:44.019Z,5456
2017-07-27T14:02:29.152Z,6128
2017-07-27T14:03:29.475Z,6732
2017-07-27T14:04:29.209Z,6816
2017-07-27T14:05:29.224Z,6952
2017-07-27T14:06:29.567Z,7016
2017-07-27T14:07:29.281Z,6656
2017-07-27T14:09:29.659Z,6932
2017-07-27T14:10:29.672Z,6844
2017-07-27T14:11:29.412Z,6176
2017-07-27T14:12:44.316Z,5136
2017-07-27T14:13:29.458Z,4208
2017-07-27T14:14:29.757Z,4168
2017-07-27T14:16:29.536Z,4736
2017-07-27T14:18:44.511Z,4304
2017-07-27T14:19:29.598Z,4428
2017-07-27T14:20:29.324Z,3852
2017-07-27T14:21:29.343Z,3932
2017-07-27T14:22:29.379Z,4476
2017-07-27T14:23:30.038Z,5092
2017-07-27T14:24:30.063Z,5792
2017-07-27T14:25:30.080Z,7364
2017-07-27T14:26:30.111Z,8576
2017-07-27T14:27:29.849Z,8384
2017-07-27T14:28:30.163Z,8572